Time;durP1;ratioP1;P1;durP2;ratioP2;P2;SDS_P1;SDS_P2;PMS_P1;PMS_P2;Temp;Humidity;BMP_temperature;BMP_pressure;BME280_temperature;BME280_humidity;BME280_pressure;Samples;Min_cycle;Max_cycle;Signal;HPM_P1;HPM_P2
2023/03/22 00:00:37;;;;;;;35.47;24.53;;;;;;;12.78;89.95;99112.28;5111880;28;20689;-66
2023/03/22 00:03:06;;;;;;;38.87;24.20;;;;;;;12.80;89.95;99120.88;5111929;28;20220;-67
2023/03/22 00:05:33;;;;;;;42.10;25.20;;;;;;;12.73;90.28;99117.44;5112138;28;20632;-66
2023/03/22 00:08:00;;;;;;;38.00;24.90;;;;;;;12.75;89.79;99123.41;5112501;28;20280;-66
2023/03/22 00:10:28;;;;;;;39.87;25.33;;;;;;;12.73;90.38;99125.44;5112771;28;20208;-66
2023/03/22 00:12:55;;;;;;;45.40;26.97;;;;;;;12.60;91.07;99125.56;5111990;28;20203;-67
2023/03/22 00:15:22;;;;;;;37.30;24.47;;;;;;;12.61;91.25;99121.88;5112185;28;20189;-66
2023/03/22 00:17:50;;;;;;;44.30;27.03;;;;;;;12.32;91.42;99095.03;5111965;28;20198;-66
2023/03/22 00:20:19;;;;;;;41.53;26.50;;;;;;;12.54;91.76;99123.75;5112331;28;20281;-66
2023/03/22 00:22:47;;;;;;;41.17;25.90;;;;;;;12.48;91.65;99100.66;5113809;28;20266;-66
2023/03/22 00:25:14;;;;;;;45.17;28.20;;;;;;;12.61;91.64;99119.19;5116520;28;20189;-66
2023/03/22 00:27:41;;;;;;;44.33;26.40;;;;;;;12.39;92.05;99111.81;5116247;28;20197;-66
2023/03/22 00:30:10;;;;;;;45.40;26.57;;;;;;;12.47;92.28;99119.53;5117063;28;20192;-66
2023/03/22 00:32:38;;;;;;;39.00;25.80;;;;;;;12.56;92.20;99108.38;5115647;28;20656;-66
2023/03/22 00:35:06;;;;;;;38.97;26.23;;;;;;;12.48;91.84;99116.66;5116245;28;20285;-66
2023/03/22 00:37:37;;;;;;;43.20;27.07;;;;;;;12.52;91.63;99117.84;5116496;28;20279;-66
2023/03/22 00:40:05;;;;;;;40.87;26.37;;;;;;;12.58;91.79;99116.97;5116409;28;20198;-66
2023/03/22 00:42:32;;;;;;;39.00;26.07;;;;;;;12.61;91.99;99115.72;5115634;28;20192;-66
2023/03/22 00:44:59;;;;;;;38.07;26.07;;;;;;;12.49;91.89;99090.84;5116222;28;20194;-66
2023/03/22 00:47:26;;;;;;;41.87;26.17;;;;;;;12.67;91.44;99114.84;5116660;28;20220;-66
2023/03/22 00:49:53;;;;;;;43.43;24.63;;;;;;;12.63;91.61;99092.34;5115970;28;20712;-67
2023/03/22 00:52:20;;;;;;;39.67;24.47;;;;;;;12.78;91.59;99111.47;5115703;28;20193;-66
2023/03/22 00:54:48;;;;;;;40.60;25.37;;;;;;;12.74;91.48;99111.09;5116124;28;20194;-66
2023/03/22 00:57:16;;;;;;;39.23;24.53;;;;;;;12.80;91.22;99114.72;5115626;28;20751;-66
2023/03/22 00:59:43;;;;;;;40.20;25.60;;;;;;;12.78;90.61;99114.94;5115307;28;20193;-67
2023/03/22 01:02:12;;;;;;;39.93;23.87;;;;;;;12.82;90.67;99110.81;5115929;28;20229;-66
2023/03/22 01:04:45;;;;;;;40.53;24.83;;;;;;;12.64;90.51;99107.28;5115653;28;20242;-66
2023/03/22 01:07:16;;;;;;;35.37;24.17;;;;;;;12.55;90.73;99103.28;5116160;28;20186;-66
2023/03/22 01:09:43;;;;;;;37.33;23.60;;;;;;;12.50;90.53;99106.56;5116434;28;20180;-65
2023/03/22 01:12:11;;;;;;;37.40;23.37;;;;;;;12.47;90.74;99098.22;5115761;28;20238;-66
2023/03/22 01:14:38;;;;;;;40.97;24.50;;;;;;;12.37;90.79;99101.34;5114416;28;20299;-66
2023/03/22 01:17:06;;;;;;;32.43;22.50;;;;;;;12.35;91.01;99090.13;5115525;28;20190;-66
2023/03/22 01:19:33;;;;;;;32.57;22.53;;;;;;;12.31;90.48;99098.75;5115548;28;20192;-66
2023/03/22 01:22:00;;;;;;;37.20;23.17;;;;;;;12.28;90.34;99110.66;5115044;28;20271;-65
2023/03/22 01:24:26;;;;;;;33.33;23.27;;;;;;;12.27;90.26;99103.69;5115425;28;20221;-65
2023/03/22 01:26:53;;;;;;;34.40;22.60;;;;;;;12.28;90.31;99105.31;5115153;28;20643;-66
2023/03/22 01:29:21;;;;;;;34.17;22.70;;;;;;;11.89;91.05;99104.78;5114811;28;20729;-67
2023/03/22 01:31:48;;;;;;;41.80;23.67;;;;;;;11.99;91.09;99105.94;5114603;28;20189;-67
2023/03/22 01:34:15;;;;;;;34.07;22.47;;;;;;;12.03;90.30;99108.97;5114401;28;20664;-66
2023/03/22 01:36:41;;;;;;;35.33;22.83;;;;;;;11.94;89.96;99107.59;5115360;28;20192;-67
2023/03/22 01:39:08;;;;;;;35.00;23.07;;;;;;;12.03;89.88;99109.81;5115546;28;20197;-67
2023/03/22 01:41:36;;;;;;;33.53;23.50;;;;;;;12.05;89.63;99098.94;5114705;28;20211;-65
2023/03/22 01:44:15;;;;;;;33.63;23.07;;;;;;;11.91;90.04;99103.53;5114307;28;20574;-65
2023/03/22 01:46:45;;;;;;;36.27;21.40;;;;;;;11.79;90.24;99094.59;5114688;28;20178;-65
2023/03/22 01:49:15;;;;;;;32.93;22.20;;;;;;;11.81;90.68;99108.50;5115849;28;20207;-64
2023/03/22 01:51:45;;;;;;;37.73;24.37;;;;;;;11.60;91.37;99100.81;5115303;28;20235;-64
2023/03/22 01:54:17;;;;;;;34.47;22.97;;;;;;;11.58;91.94;99102.84;5114252;28;20629;-65
2023/03/22 01:56:44;;;;;;;36.07;22.53;;;;;;;11.59;92.25;99099.16;5115234;28;20603;-65
2023/03/22 01:59:14;;;;;;;36.00;22.47;;;;;;;11.46;92.86;99104.53;5114870;28;20216;-65
2023/03/22 02:01:41;;;;;;;38.73;23.60;;;;;;;11.48;93.23;99102.50;5114446;28;20228;-66
2023/03/22 02:04:14;;;;;;;38.20;23.47;;;;;;;11.52;93.11;99101.06;5114277;28;20193;-65
2023/03/22 02:06:42;;;;;;;37.57;25.73;;;;;;;11.54;93.30;99106.97;5114354;28;20184;-65
2023/03/22 02:09:15;;;;;;;35.17;24.13;;;;;;;11.57;93.19;99106.56;5114607;28;20249;-64
2023/03/22 02:11:44;;;;;;;42.33;25.07;;;;;;;11.55;93.00;99105.13;5113805;28;20181;-65
2023/03/22 02:14:35;;;;;;;38.73;25.23;;;;;;;11.38;93.80;99120.72;5114444;28;20271;-65
2023/03/22 02:17:19;;;;;;;35.97;23.87;;;;;;;11.31;94.38;99117.28;5114173;28;20197;-65
2023/03/22 02:20:12;;;;;;;41.30;24.80;;;;;;;11.42;93.79;99113.97;5114075;28;20240;-65
2023/03/22 02:23:18;;;;;;;35.77;23.80;;;;;;;11.26;93.84;99125.06;5114569;28;20177;-65
2023/03/22 02:26:28;;;;;;;34.73;23.47;;;;;;;11.27;95.02;99125.91;5100708;28;20189;-65
2023/03/22 02:28:59;;;;;;;36.10;23.80;;;;;;;11.21;95.07;99121.41;5113926;28;20238;-66
2023/03/22 02:31:51;;;;;;;34.13;22.93;;;;;;;11.19;94.75;99123.47;5114184;28;20180;-66
2023/03/22 02:34:53;;;;;;;37.03;22.80;;;;;;;11.00;95.93;99109.19;5080235;28;20277;-66
2023/03/22 02:37:50;;;;;;;37.57;22.00;;;;;;;11.06;95.80;99116.31;5100090;28;20274;-66
2023/03/22 02:40:28;;;;;;;34.93;22.80;;;;;;;11.10;95.70;99120.19;5113809;28;20179;-67
2023/03/22 02:43:01;;;;;;;38.70;24.17;;;;;;;11.01;95.69;99121.44;5113761;28;20232;-65
2023/03/22 02:45:33;;;;;;;37.93;26.30;;;;;;;11.09;96.08;99118.56;5113146;28;20179;-65
2023/03/22 02:48:07;;;;;;;35.87;25.77;;;;;;;11.07;95.86;99120.63;5113193;28;20630;-65
2023/03/22 02:50:39;;;;;;;41.97;27.53;;;;;;;11.14;95.96;99121.41;5113576;28;20175;-65
2023/03/22 02:53:13;;;;;;;45.80;27.57;;;;;;;11.12;95.48;99131.44;5113776;28;20179;-65
2023/03/22 02:55:47;;;;;;;57.20;36.47;;;;;;;11.03;95.96;99120.22;5101122;28;20179;-66
2023/03/22 02:58:17;;;;;;;56.50;36.13;;;;;;;11.16;96.04;99129.19;5113569;28;20178;-65
2023/03/22 03:00:46;;;;;;;62.63;38.40;;;;;;;11.23;95.74;99125.47;5114131;28;20222;-65
2023/03/22 03:03:17;;;;;;;73.80;42.90;;;;;;;11.32;95.37;99129.56;5113162;28;20643;-65
2023/03/22 03:05:46;;;;;;;70.50;40.73;;;;;;;11.32;94.64;99129.56;5114186;28;20180;-65
2023/03/22 03:08:15;;;;;;;73.97;40.23;;;;;;;11.30;94.67;99141.44;5112651;28;20655;-65
2023/03/22 03:10:45;;;;;;;59.03;37.40;;;;;;;11.32;94.83;99139.38;5113285;28;20184;-65
2023/03/22 03:13:13;;;;;;;59.90;34.17;;;;;;;11.40;95.18;99147.94;5113150;28;20187;-65
2023/03/22 03:15:42;;;;;;;55.10;34.30;;;;;;;11.37;94.40;99145.69;5113332;28;20332;-65
2023/03/22 03:18:31;;;;;;;56.57;34.57;;;;;;;11.40;94.82;99142.63;5114062;28;20252;-65
2023/03/22 03:21:04;;;;;;;53.43;32.63;;;;;;;11.44;94.46;99146.50;5113664;28;20237;-65
2023/03/22 03:23:44;;;;;;;56.30;33.47;;;;;;;11.53;94.27;99153.22;5112707;28;20240;-65
2023/03/22 03:26:21;;;;;;;46.37;28.87;;;;;;;11.58;93.75;99150.72;5092996;28;20176;-65
2023/03/22 03:28:53;;;;;;;37.13;24.50;;;;;;;11.53;92.63;99153.22;5092544;28;20183;-65
2023/03/22 03:31:31;;;;;;;34.07;23.93;;;;;;;11.47;93.28;99150.59;5092476;28;20226;-65
2023/03/22 03:34:05;;;;;;;35.33;23.60;;;;;;;11.49;93.23;99141.38;5092373;28;20676;-65
2023/03/22 03:36:36;;;;;;;31.03;23.70;;;;;;;11.56;93.21;99151.97;5092393;28;20184;-65
2023/03/22 03:39:07;;;;;;;30.93;21.20;;;;;;;11.53;92.41;99158.53;5092546;28;20181;-65
2023/03/22 03:41:36;;;;;;;31.33;22.80;;;;;;;11.54;92.57;99151.34;5097431;28;20187;-66
2023/03/22 03:44:05;;;;;;;34.97;22.93;;;;;;;11.59;92.95;99155.03;5112080;28;20196;-66
2023/03/22 03:46:31;;;;;;;33.67;22.40;;;;;;;11.64;92.80;99155.22;5112500;28;20198;-66
2023/03/22 03:48:59;;;;;;;36.47;23.03;;;;;;;11.41;93.11;99151.41;5112572;28;20534;-65
2023/03/22 03:51:27;;;;;;;38.90;24.30;;;;;;;11.40;93.71;99153.25;5112488;28;20192;-65
2023/03/22 03:53:54;;;;;;;40.47;26.13;;;;;;;11.49;93.50;99159.16;5112625;28;20227;-65
2023/03/22 03:56:21;;;;;;;33.07;23.70;;;;;;;11.52;93.13;99148.94;5112251;28;20187;-66
2023/03/22 03:58:49;;;;;;;31.00;21.90;;;;;;;11.59;93.48;99160.34;5112081;28;20188;-65
2023/03/22 04:01:18;;;;;;;35.43;23.00;;;;;;;11.59;93.09;99155.03;5112081;28;20553;-65
2023/03/22 04:03:45;;;;;;;47.07;31.93;;;;;;;11.50;93.25;99153.63;5112327;28;20589;-64
2023/03/22 04:06:12;;;;;;;35.43;23.87;;;;;;;11.56;93.68;99155.44;5112958;28;20607;-65
2023/03/22 04:08:38;;;;;;;37.60;26.67;;;;;;;11.60;93.47;99158.50;5112395;28;20192;-66
2023/03/22 04:11:05;;;;;;;30.87;23.07;;;;;;;11.65;93.73;99164.88;5111701;28;20188;-66
2023/03/22 04:13:32;;;;;;;31.50;23.20;;;;;;;11.61;93.66;99171.63;5111981;28;20189;-67
2023/03/22 04:16:01;;;;;;;34.30;24.60;;;;;;;11.60;93.78;99167.31;5112115;28;20191;-67
2023/03/22 04:18:29;;;;;;;34.43;23.67;;;;;;;11.45;93.49;99166.75;5113552;28;20198;-67
2023/03/22 04:20:56;;;;;;;33.47;24.63;;;;;;;11.52;94.04;99172.88;5112010;28;20279;-68
2023/03/22 04:23:24;;;;;;;38.73;23.57;;;;;;;11.59;94.28;99178.16;5111662;28;20199;-69
2023/03/22 04:25:52;;;;;;;33.20;23.00;;;;;;;11.61;94.30;99171.63;5112589;28;20192;-68
2023/03/22 04:28:19;;;;;;;34.03;23.13;;;;;;;11.61;94.28;99182.28;5111591;28;20191;-67
2023/03/22 04:30:49;;;;;;;36.10;24.33;;;;;;;11.57;94.71;99186.34;5111770;28;20192;-67
2023/03/22 04:33:18;;;;;;;42.83;27.50;;;;;;;11.59;94.82;99189.59;5112852;28;20265;-67
2023/03/22 04:35:45;;;;;;;33.83;24.03;;;;;;;11.48;95.38;99182.28;5112506;28;20288;-64
2023/03/22 04:38:12;;;;;;;31.50;23.33;;;;;;;11.59;95.60;99184.28;5111500;28;20270;-65
2023/03/22 04:40:45;;;;;;;31.73;21.47;;;;;;;11.60;95.65;99185.94;5112107;28;20191;-65
2023/03/22 04:43:14;;;;;;;37.90;22.87;;;;;;;11.54;95.76;99192.06;5111954;28;20596;-63
2023/03/22 04:45:41;;;;;;;35.47;22.83;;;;;;;11.63;96.65;99185.53;5111334;28;20613;-63
2023/03/22 04:48:09;;;;;;;32.50;23.83;;;;;;;11.75;96.38;99183.84;5111546;28;20245;-65
2023/03/22 04:50:38;;;;;;;31.20;22.53;;;;;;;11.78;95.01;99198.56;5111388;28;20650;-66
2023/03/22 04:53:05;;;;;;;34.60;23.23;;;;;;;11.79;95.07;99189.56;5111080;28;20199;-65
2023/03/22 04:55:32;;;;;;;30.83;22.90;;;;;;;11.85;95.67;99197.53;5111012;28;20709;-65
2023/03/22 04:57:59;;;;;;;35.53;24.87;;;;;;;11.86;95.34;99201.81;5111039;28;20200;-64
2023/03/22 05:00:29;;;;;;;28.00;21.80;;;;;;;11.86;95.13;99199.16;5111530;28;20227;-64
2023/03/22 05:02:57;;;;;;;30.73;22.27;;;;;;;11.94;95.16;99208.75;5111001;28;20185;-65
2023/03/22 05:05:23;;;;;;;33.90;23.13;;;;;;;11.90;95.16;99199.53;5110535;28;20192;-65
2023/03/22 05:07:51;;;;;;;31.53;23.50;;;;;;;11.80;97.18;99199.19;5112094;28;20193;-64
2023/03/22 05:10:18;;;;;;;32.97;24.23;;;;;;;11.80;97.86;99205.31;5115912;28;20184;-64
2023/03/22 05:12:45;;;;;;;34.70;23.50;;;;;;;11.85;97.80;99210.84;5115306;28;20558;-64
2023/03/22 05:15:12;;;;;;;30.93;22.60;;;;;;;11.91;98.40;99212.66;5115101;28;20281;-67
2023/03/22 05:17:39;;;;;;;34.93;24.13;;;;;;;12.44;100.00;99211.34;5115150;28;20598;-67
2023/03/22 05:20:08;;;;;;;35.00;24.27;;;;;;;12.39;100.00;99208.50;5115486;28;20218;-64
2023/03/22 05:22:36;;;;;;;29.93;23.50;;;;;;;12.42;97.73;99213.38;5115133;28;20193;-65
2023/03/22 05:25:06;;;;;;;31.77;24.73;;;;;;;12.38;96.06;99216.72;5114294;28;20283;-66
2023/03/22 05:27:33;;;;;;;33.93;25.47;;;;;;;12.34;95.32;99229.66;5114709;28;20605;-66
2023/03/22 05:30:01;;;;;;;36.93;25.67;;;;;;;12.25;94.62;99236.22;5115304;28;20201;-64
2023/03/22 05:32:28;;;;;;;33.23;24.50;;;;;;;12.22;94.57;99239.34;5115220;28;20557;-64
2023/03/22 05:34:55;;;;;;;34.53;24.73;;;;;;;12.16;95.16;99242.84;5114219;28;20213;-64
2023/03/22 05:37:22;;;;;;;34.33;25.50;;;;;;;12.17;95.67;99251.66;5114618;28;20574;-64
2023/03/22 05:39:48;;;;;;;36.43;26.77;;;;;;;12.12;97.53;99246.94;5114918;28;20196;-65
2023/03/22 05:42:16;;;;;;;35.37;26.50;;;;;;;12.14;97.75;99247.56;5114387;28;20208;-65
2023/03/22 05:44:43;;;;;;;36.47;27.90;;;;;;;12.15;97.17;99251.88;5114057;28;20193;-66
2023/03/22 05:47:10;;;;;;;81.77;51.00;;;;;;;12.19;97.71;99250.41;5114402;28;20558;-65
2023/03/22 05:49:37;;;;;;;42.80;30.10;;;;;;;12.09;97.24;99259.88;5115149;28;20222;-66
2023/03/22 05:52:04;;;;;;;37.77;26.80;;;;;;;12.06;98.21;99258.47;5114523;28;20644;-65
2023/03/22 05:54:31;;;;;;;37.40;27.50;;;;;;;11.96;97.85;99260.72;5115257;28;20641;-65
2023/03/22 05:56:58;;;;;;;43.90;29.03;;;;;;;11.86;97.73;99271.00;5113336;28;20186;-64
2023/03/22 05:59:26;;;;;;;42.50;30.00;;;;;;;11.74;98.26;99272.69;5113982;28;20189;-64
2023/03/22 06:01:53;;;;;;;40.17;27.80;;;;;;;11.63;99.14;99268.00;5113704;28;20225;-65
2023/03/22 06:04:21;;;;;;;40.87;29.40;;;;;;;11.72;100.00;99274.72;5113470;28;20293;-65
2023/03/22 06:06:48;;;;;;;44.17;29.57;;;;;;;11.66;100.00;99280.88;5113348;28;20192;-66
2023/03/22 06:09:14;;;;;;;44.23;32.27;;;;;;;11.60;100.00;99276.38;5113347;28;20189;-65
2023/03/22 06:11:41;;;;;;;45.40;31.70;;;;;;;11.64;100.00;99280.25;5113927;28;20231;-66
2023/03/22 06:14:08;;;;;;;50.63;33.77;;;;;;;11.71;100.00;99282.94;5113723;28;20191;-65
2023/03/22 06:16:36;;;;;;;43.40;30.77;;;;;;;11.74;100.00;99283.31;5114171;28;20244;-65
2023/03/22 06:19:03;;;;;;;52.63;33.10;;;;;;;11.85;100.00;99285.34;5114184;28;20635;-66
2023/03/22 06:21:29;;;;;;;47.10;32.00;;;;;;;11.87;100.00;99293.09;5113778;28;20252;-65
2023/03/22 06:23:56;;;;;;;41.63;28.57;;;;;;;11.97;100.00;99290.84;5114187;28;20603;-66
2023/03/22 06:26:23;;;;;;;44.33;29.43;;;;;;;11.96;100.00;99302.53;5114037;28;20249;-67
2023/03/22 06:28:49;;;;;;;42.47;28.83;;;;;;;12.02;100.00;99299.84;5114924;28;20193;-67
2023/03/22 06:31:16;;;;;;;42.90;29.60;;;;;;;12.11;100.00;99300.41;5112797;28;20189;-68
2023/03/22 06:33:44;;;;;;;40.97;28.83;;;;;;;12.02;99.95;99302.50;5112872;28;20241;-68
2023/03/22 06:36:11;;;;;;;38.80;28.57;;;;;;;12.00;99.68;99312.53;5114094;28;20215;-67
2023/03/22 06:38:38;;;;;;;45.53;28.00;;;;;;;11.93;98.72;99322.41;5113540;28;20195;-70
2023/03/22 06:41:05;;;;;;;41.87;27.90;;;;;;;11.90;99.22;99319.31;5113948;28;20186;-68
2023/03/22 06:43:31;;;;;;;44.53;29.10;;;;;;;11.88;99.68;99327.50;5113550;28;20244;-68
2023/03/22 06:45:58;;;;;;;44.77;27.87;;;;;;;11.96;99.83;99335.25;5102806;28;20192;-68
2023/03/22 06:48:25;;;;;;;46.40;31.27;;;;;;;12.05;100.00;99338.53;5107264;28;20185;-69
2023/03/22 06:50:53;;;;;;;49.37;34.63;;;;;;;12.10;99.50;99331.56;5113430;28;20308;-69
2023/03/22 06:53:20;;;;;;;45.23;31.00;;;;;;;12.13;99.49;99333.78;5112620;28;20199;-66
2023/03/22 06:55:46;;;;;;;42.47;29.43;;;;;;;12.09;100.00;99335.22;5109570;28;20213;-69
2023/03/22 06:58:16;;;;;;;41.93;29.63;;;;;;;12.17;100.00;99326.22;5112384;28;20250;-68
2023/03/22 07:00:43;;;;;;;45.20;29.70;;;;;;;12.21;100.00;99322.09;5112564;28;20212;-69
2023/03/22 07:03:10;;;;;;;46.87;29.67;;;;;;;12.20;100.00;99326.59;5112619;28;20374;-68
2023/03/22 07:05:37;;;;;;;43.87;30.43;;;;;;;12.25;100.00;99325.97;5113050;28;20187;-67
2023/03/22 07:08:05;;;;;;;45.43;30.47;;;;;;;12.16;100.00;99322.72;5112787;28;20724;-67
2023/03/22 07:10:31;;;;;;;42.03;30.90;;;;;;;12.07;100.00;99331.13;5113204;28;20594;-67
2023/03/22 07:12:59;;;;;;;49.17;35.90;;;;;;;12.12;100.00;99332.16;5111583;28;20241;-67
2023/03/22 07:15:25;;;;;;;54.93;36.47;;;;;;;12.06;100.00;99327.69;5112788;28;20219;-67
2023/03/22 07:17:52;;;;;;;52.77;36.03;;;;;;;11.98;100.00;99324.41;5112609;28;20185;-67
2023/03/22 07:20:19;;;;;;;49.03;34.23;;;;;;;11.83;100.00;99307.84;5110143;28;20184;-67
2023/03/22 07:22:46;;;;;;;47.00;31.00;;;;;;;11.56;100.00;99301.72;5112847;28;20530;-66
2023/03/22 07:25:14;;;;;;;39.50;29.67;;;;;;;11.60;100.00;99297.66;5112634;28;20196;-69
2023/03/22 07:27:41;;;;;;;43.37;30.37;;;;;;;11.53;100.00;99299.50;5112284;28;20675;-69
2023/03/22 07:30:09;;;;;;;53.47;32.13;;;;;;;11.34;100.00;99297.66;5111924;28;20203;-67
2023/03/22 07:32:35;;;;;;;51.13;31.83;;;;;;;11.08;100.00;99289.72;5112300;28;20185;-68
2023/03/22 07:35:02;;;;;;;53.40;33.20;;;;;;;10.84;100.00;99300.94;5111676;28;20699;-68
2023/03/22 07:37:29;;;;;;;60.73;38.47;;;;;;;10.81;100.00;99301.31;5112503;28;20187;-67
2023/03/22 07:39:56;;;;;;;65.97;37.47;;;;;;;10.82;100.00;99310.91;5111250;28;20532;-69
2023/03/22 07:42:24;;;;;;;62.83;37.97;;;;;;;10.92;100.00;99311.38;5110035;28;20190;-68
2023/03/22 07:44:51;;;;;;;64.20;39.07;;;;;;;11.02;100.00;99313.63;5111762;28;20243;-69
2023/03/22 07:47:17;;;;;;;63.60;39.03;;;;;;;11.07;100.00;99329.78;5112451;28;20186;-68
2023/03/22 07:49:44;;;;;;;60.10;39.40;;;;;;;11.21;100.00;99345.53;5111344;28;20241;-69
2023/03/22 07:52:11;;;;;;;60.27;36.43;;;;;;;11.27;100.00;99358.00;5111305;28;20184;-69
2023/03/22 07:54:37;;;;;;;53.63;34.77;;;;;;;11.35;100.00;99364.97;5112086;28;20716;-67
2023/03/22 07:57:05;;;;;;;57.23;34.37;;;;;;;11.53;100.00;99360.69;5105802;28;20198;-70
2023/03/22 07:59:33;;;;;;;53.27;33.13;;;;;;;11.74;100.00;99351.69;5110793;28;20192;-69
2023/03/22 08:02:00;;;;;;;49.23;33.33;;;;;;;11.87;100.00;99356.97;5112375;28;20751;-69
2023/03/22 08:04:27;;;;;;;48.43;31.87;;;;;;;12.04;100.00;99356.34;5108766;28;20188;-68
2023/03/22 08:06:57;;;;;;;50.00;32.73;;;;;;;12.15;100.00;99360.19;5112188;28;20223;-68
2023/03/22 08:09:24;;;;;;;50.80;32.97;;;;;;;12.33;100.00;99353.16;5111558;28;20668;-66
2023/03/22 08:11:50;;;;;;;47.67;33.07;;;;;;;12.56;100.00;99347.34;5112076;28;20192;-66
2023/03/22 08:14:17;;;;;;;47.13;31.30;;;;;;;12.74;100.00;99356.28;5112077;28;20557;-66
2023/03/22 08:16:46;;;;;;;43.60;30.13;;;;;;;12.88;100.00;99357.84;5108706;28;20213;-67
2023/03/22 08:19:13;;;;;;;42.93;29.67;;;;;;;13.01;99.57;99368.47;5111484;28;20610;-66
2023/03/22 08:21:39;;;;;;;38.87;27.93;;;;;;;12.87;98.08;99361.53;5111528;28;20213;-66
2023/03/22 08:24:06;;;;;;;41.50;28.60;;;;;;;13.00;98.55;99377.50;5112140;28;20185;-66
2023/03/22 08:26:33;;;;;;;46.13;31.83;;;;;;;13.08;97.42;99384.41;5104781;28;20263;-65
2023/03/22 08:29:00;;;;;;;54.23;34.33;;;;;;;13.13;98.93;99380.06;5091702;28;20220;-67
2023/03/22 08:31:27;;;;;;;43.13;30.73;;;;;;;13.08;97.28;99379.91;5092105;28;20183;-67
2023/03/22 08:33:55;;;;;;;42.17;30.03;;;;;;;12.95;96.71;99385.28;5092080;28;20252;-67
2023/03/22 08:36:22;;;;;;;38.97;27.87;;;;;;;12.85;96.35;99384.94;5108944;28;20217;-67
2023/03/22 08:38:49;;;;;;;32.30;24.10;;;;;;;12.86;96.44;99389.22;5112273;28;20281;-67
2023/03/22 08:41:16;;;;;;;35.07;26.57;;;;;;;12.91;96.03;99392.06;5112329;28;20605;-67
2023/03/22 08:43:43;;;;;;;35.90;27.57;;;;;;;12.93;95.88;99390.00;5114025;28;20191;-67
2023/03/22 08:46:10;;;;;;;36.93;28.70;;;;;;;13.03;96.53;99398.38;5116267;28;20190;-67
2023/03/22 08:48:37;;;;;;;40.23;29.37;;;;;;;13.10;95.14;99403.66;5114828;28;20189;-67
2023/03/22 08:51:06;;;;;;;38.97;28.87;;;;;;;13.14;95.53;99389.72;5115678;28;20187;-67
2023/03/22 08:53:33;;;;;;;47.87;32.37;;;;;;;13.13;95.28;99382.75;5116212;28;20191;-66
2023/03/22 08:56:00;;;;;;;41.20;30.70;;;;;;;13.15;97.35;99372.66;5115846;28;20214;-66
2023/03/22 08:58:27;;;;;;;44.60;31.87;;;;;;;13.15;96.19;99377.19;5116031;28;20198;-67
2023/03/22 09:00:54;;;;;;;44.93;30.60;;;;;;;13.11;96.19;99390.13;5115121;28;20447;-67
2023/03/22 09:03:22;;;;;;;41.10;29.50;;;;;;;13.19;96.86;99389.88;5116483;28;20265;-67
2023/03/22 09:05:49;;;;;;;40.63;30.70;;;;;;;13.26;96.43;99385.31;5116406;28;20194;-65
2023/03/22 09:08:17;;;;;;;39.53;28.40;;;;;;;13.44;95.20;99385.38;5115526;28;20193;-68
2023/03/22 09:10:46;;;;;;;39.30;29.30;;;;;;;13.54;93.60;99369.72;5115547;28;20243;-67
2023/03/22 09:13:15;;;;;;;39.37;29.07;;;;;;;13.62;93.46;99374.78;5113880;28;20199;-66
2023/03/22 09:15:43;;;;;;;39.67;28.87;;;;;;;13.63;93.13;99376.41;5115145;28;20250;-65
2023/03/22 09:18:10;;;;;;;38.23;28.33;;;;;;;13.70;93.15;99371.84;5115474;28;20234;-64
2023/03/22 09:20:37;;;;;;;43.50;31.63;;;;;;;13.83;93.40;99377.06;5115687;28;20580;-69
2023/03/22 09:23:04;;;;;;;41.63;31.43;;;;;;;14.01;92.89;99392.31;5115100;28;20186;-65
2023/03/22 09:25:32;;;;;;;43.30;31.77;;;;;;;14.15;93.59;99383.09;5114882;28;20204;-65
2023/03/22 09:27:59;;;;;;;43.20;30.63;;;;;;;14.28;91.34;99388.34;5115043;28;20191;-65
2023/03/22 09:30:26;;;;;;;44.27;32.50;;;;;;;14.27;91.68;99392.06;5114557;28;20218;-67
2023/03/22 09:32:53;;;;;;;42.57;31.53;;;;;;;14.33;91.88;99389.31;5115012;28;20273;-66
2023/03/22 09:35:20;;;;;;;40.10;29.30;;;;;;;14.49;91.10;99386.06;5115092;28;20194;-67
2023/03/22 09:37:51;;;;;;;42.43;29.60;;;;;;;14.59;88.37;99396.22;5097262;28;20190;-66
2023/03/22 09:40:18;;;;;;;39.37;29.80;;;;;;;14.71;88.22;99400.56;5115814;28;20189;-67
2023/03/22 09:42:50;;;;;;;39.80;28.97;;;;;;;14.78;87.12;99389.78;5115197;28;20186;-66
2023/03/22 09:45:20;;;;;;;37.37;28.17;;;;;;;14.78;87.95;99382.59;5115726;28;20582;-67
2023/03/22 09:47:51;;;;;;;39.27;28.30;;;;;;;14.66;89.82;99376.38;5114950;28;20197;-68
2023/03/22 09:50:20;;;;;;;37.70;28.83;;;;;;;14.62;89.33;99367.16;5113152;28;20179;-66
2023/03/22 09:52:47;;;;;;;35.80;26.50;;;;;;;14.60;89.31;99363.91;5114813;28;20191;-65
2023/03/22 09:55:20;;;;;;;37.93;28.27;;;;;;;14.56;89.86;99361.91;5114072;28;20187;-66
2023/03/22 09:58:00;;;;;;;32.80;25.17;;;;;;;14.38;89.37;99357.38;5115740;28;20186;-65
2023/03/22 10:00:37;;;;;;;32.70;24.93;;;;;;;14.28;90.85;99366.97;5114578;28;20619;-66
2023/03/22 10:03:16;;;;;;;32.33;26.50;;;;;;;14.31;90.82;99362.00;5114582;28;20238;-67
2023/03/22 10:05:49;;;;;;;29.50;23.93;;;;;;;14.46;91.00;99370.44;5114615;28;20182;-67
2023/03/22 10:08:30;;;;;;;35.93;26.47;;;;;;;14.59;89.06;99370.28;5114250;28;20634;-66
2023/03/22 10:10:58;;;;;;;33.10;24.27;;;;;;;14.61;89.22;99376.25;5115455;28;20236;-65
2023/03/22 10:13:32;;;;;;;29.67;23.27;;;;;;;14.55;89.44;99371.78;5114510;28;20186;-66
2023/03/22 10:16:03;;;;;;;32.03;25.83;;;;;;;14.85;90.27;99375.31;5114349;28;21341;-66
2023/03/22 10:18:35;;;;;;;35.57;25.37;;;;;;;14.88;87.71;99369.53;5114059;28;20243;-67
2023/03/22 10:21:04;;;;;;;34.63;26.27;;;;;;;14.91;87.76;99369.03;5114191;28;20179;-69
2023/03/22 10:23:35;;;;;;;29.63;23.73;;;;;;;14.81;87.28;99368.78;5112994;28;20601;-65
2023/03/22 10:26:04;;;;;;;31.80;24.13;;;;;;;14.78;87.43;99369.22;5113009;28;20175;-66
2023/03/22 10:28:39;;;;;;;37.97;24.40;;;;;;;14.84;88.45;99370.19;5113312;28;20645;-65
2023/03/22 10:31:06;;;;;;;38.67;25.13;;;;;;;14.96;89.46;99363.81;5113239;28;20174;-64
2023/03/22 10:33:48;;;;;;;37.60;25.00;;;;;;;15.00;87.05;99367.69;5112483;28;20208;-66
2023/03/22 10:36:18;;;;;;;33.30;25.73;;;;;;;15.13;86.61;99367.50;5113744;28;20198;-65
2023/03/22 10:38:48;;;;;;;32.70;23.10;;;;;;;15.30;87.40;99356.97;5112990;28;20592;-65
2023/03/22 10:41:17;;;;;;;37.50;27.97;;;;;;;15.34;85.61;99369.69;5113692;28;20174;-65
2023/03/22 10:43:48;;;;;;;31.87;24.77;;;;;;;15.28;84.90;99365.22;5114294;28;20194;-65
2023/03/22 10:46:19;;;;;;;32.73;22.33;;;;;;;15.44;83.75;99364.59;5113613;28;20194;-65
2023/03/22 10:48:49;;;;;;;28.83;24.10;;;;;;;15.44;84.57;99361.91;5112815;28;20232;-68
2023/03/22 10:51:25;;;;;;;35.33;25.60;;;;;;;15.36;84.06;99354.22;5113983;28;20198;-69
2023/03/22 10:53:55;;;;;;;37.40;24.70;;;;;;;15.49;83.10;99351.31;5113112;28;20217;-66
2023/03/22 10:56:21;;;;;;;24.90;21.30;;;;;;;15.60;82.71;99361.22;5113628;28;20335;-68
2023/03/22 10:58:51;;;;;;;27.37;20.53;;;;;;;15.86;81.56;99352.72;5112043;28;20187;-70
2023/03/22 11:01:26;;;;;;;21.30;17.07;;;;;;;16.08;80.87;99333.41;5113357;28;20284;-68
2023/03/22 11:03:56;;;;;;;23.13;18.87;;;;;;;15.98;79.13;99349.25;5112951;28;20175;-67
2023/03/22 11:06:26;;;;;;;17.90;15.40;;;;;;;16.30;80.00;99347.81;5112538;28;20186;-67
2023/03/22 11:08:58;;;;;;;19.77;15.33;;;;;;;16.76;78.01;99350.38;5113128;28;20186;-67
2023/03/22 11:11:27;;;;;;;17.70;15.33;;;;;;;16.73;74.52;99350.84;5112302;28;20193;-66
2023/03/22 11:14:01;;;;;;;19.33;15.83;;;;;;;16.47;74.21;99359.47;5113167;28;20186;-67
2023/03/22 11:16:29;;;;;;;19.07;16.70;;;;;;;16.19;75.18;99345.97;5112818;28;20677;-65
2023/03/22 11:18:58;;;;;;;27.73;17.10;;;;;;;16.34;75.68;99344.44;5112087;28;20186;-66
2023/03/22 11:21:33;;;;;;;21.27;17.47;;;;;;;16.52;75.25;99346.97;5112148;28;20190;-65
2023/03/22 11:24:04;;;;;;;27.53;17.67;;;;;;;16.52;75.53;99346.16;5113072;28;20174;-65
2023/03/22 11:26:34;;;;;;;24.93;17.17;;;;;;;16.59;75.86;99344.16;5113418;28;20560;-64